Terminal Aerodrome Forecast
Issued by NWS

Home | Current Version | Previous Version | Text Only | Print | Product List | Glossary On
Versions: 1 2 3 4 5 6 7 8 9 10 11 12 13 14 15 16 17 18
000
FTUS42 KJAX 261900 AAA
TAFCRG
TAF AMD
KCRG 261913Z 2619/2718 24010KT P6SM VCTS SCT035CB BKN070
      TEMPO 2619/2621 VRB20G40KT 2SM TSRA BKN025CB
     FM270000 24004KT P6SM FEW030 SCT250=

USA.gov is the U.S. government's official web portal to all federal, state and local government web resources and services.